Date,TemperatureHighF,TemperatureAvgF,TemperatureLowF,DewpointHighF,DewpointAvgF,DewpointLowF,HumidityHigh,HumidityAvg,HumidityLow,PressureMaxIn,PressureMinIn,WindSpeedMaxMPH,WindSpeedAvgMPH,GustSpeedMaxMPH,PrecipitationSumIn
2013-1-3,40,30,16,28,23,13,94,75,55,30.43,30.31,14,2,15,0.02
2013-1-4,39,30,23,28,24,20,99,79,60,30.46,30.39,20,2,22,0.00
2013-1-5,44,32,19,33,26,17,94,79,57,30.42,30.23,14,2,14,0.01
2013-1-6,39,35,22,34,28,19,88,78,71,30.43,30.13,18,4,21,0.00
2013-1-7,46,29,16,31,22,14,93,79,53,30.51,30.28,11,1,11,0.00
2013-1-8,56,36,21,38,29,18,94,78,50,30.36,30.25,17,2,17,0.00
2013-1-9,59,45,33,48,40,30,93,84,61,30.53,30.25,9,1,11,0.02
2013-1-10,36,36,36,34,34,34,94,94,93,30.52,30.50,2,0,3,0.00
2013-1-12,68,64,57,64,61,56,96,92,86,30.02,29.76,20,4,21,0.03
2013-1-13,68,48,30,62,46,27,99,94,81,30.23,29.72,31,4,31,2.09
2013-1-14,31,27,23,27,22,20,88,82,73,30.49,30.23,14,3,14,0.00
2013-1-15,31,28,22,29,24,19,93,86,78,30.39,30.10,19,2,19,0.00
2013-1-16,33,31,30,30,29,28,93,91,86,30.17,30.05,11,1,11,0.04
2013-1-17,47,35,27,37,29,22,94,80,56,30.46,30.15,17,2,19,0.18
2013-1-18,47,32,19,30,24,17,94,75,50,30.58,30.32,15,2,15,0.02
2013-1-19,57,46,37,34,30,27,69,56,39,30.33,30.01,25,8,25,0.00
2013-1-20,48,38,24,36,21,13,78,53,32,30.29,30.05,18,4,19,0.00
2013-1-21,29,24,14,18,11,3,78,60,39,30.35,30.20,21,4,23,0.00
2013-1-22,22,16,10,6,2,-2,69,55,41,30.49,30.34,15,3,17,0.00
2013-1-23,37,20,12,19,10,4,92,66,45,30.44,30.22,15,2,15,0.00
2013-1-29,66,66,65,61,60,60,84,83,82,29.72,29.55,28,12,29,0.00
2013-1-30,70,50,31,63,46,25,96,86,75,29.74,29.33,33,8,35,1.30
2013-1-31,35,30,26,28,22,18,92,72,60,30.04,29.74,26,6,26,0.00
2013-2-7,67,54,33,47,41,30,91,63,45,30.13,29.85,16,3,20,0.00
2013-2-8,53,37,28,48,32,24,94,83,77,30.38,29.86,19,4,20,0.16
2013-2-9,46,34,23,30,26,21,99,74,50,30.44,30.20,15,2,16,0.00
2013-2-10,56,47,36,51,40,26,94,80,55,30.20,29.82,25,6,25,0.27
2013-2-11,55,47,37,52,35,28,92,64,48,30.13,29.82,27,7,29,0.00
2013-2-12,51,38,25,34,29,23,94,72,44,30.19,29.93,12,1,12,0.00
2013-2-13,38,36,35,32,31,30,86,83,76,29.93,29.86,5,0,5,0.00
2013-2-17,42,31,16,22,18,12,87,59,36,30.31,30.21,11,2,11,0.00
2013-2-18,62,45,27,44,32,17,91,62,41,30.21,29.77,34,8,37,0.36
2013-2-19,46,35,28,43,27,19,93,73,52,30.18,29.73,24,6,27,0.12
2013-3-7,38,34,30,32,29,26,90,80,72,30.44,30.38,6,1,7,0.01
2013-3-8,51,38,26,34,28,23,93,69,47,30.49,30.36,15,2,16,0.00
2013-3-9,60,47,30,39,34,26,89,62,40,30.37,30.04,14,3,14,0.00
2013-3-10,71,59,50,49,40,36,85,50,34,30.04,29.79,27,6,27,0.04
2013-3-11,53,46,36,52,43,31,96,88,68,29.95,29.69,24,6,25,1.36
2013-3-12,50,40,34,34,29,25,85,67,47,30.14,29.95,19,4,25,0.00
2013-3-13,36,35,34,32,31,27,88,83,73,30.14,30.12,10,1,12,0.00
2013-3-17,38,35,34,36,34,32,94,93,92,30.10,29.91,20,5,23,1.17
2013-3-18,50,42,36,47,40,34,100,92,82,29.93,29.66,21,4,21,0.80
2013-3-19,48,38,29,35,25,18,92,61,34,30.20,29.92,20,4,23,0.00
2013-3-20,40,31,23,26,20,13,91,65,41,30.19,30.07,23,4,28,0.00
2013-3-21,37,26,19,18,14,11,77,60,39,30.12,30.04,17,2,17,0.00
2013-3-22,22,20,19,17,16,15,86,83,77,30.09,30.08,1,0,1,0.00
2013-3-24,39,37,34,38,35,32,95,91,85,29.69,29.41,23,5,24,0.58
2013-3-25,35,32,31,32,30,28,93,90,84,30.07,29.51,21,4,22,0.05
2013-3-26,42,36,32,31,29,25,92,77,56,30.33,30.06,15,3,17,0.03
2013-3-27,46,35,25,30,25,22,91,69,46,30.40,30.33,13,1,13,0.00
2013-3-28,55,37,22,33,26,19,93,69,39,30.43,30.32,12,1,12,0.00
2013-3-29,58,43,28,45,35,25,91,76,56,30.35,30.22,12,2,13,0.00
2013-3-30,62,46,32,49,38,30,100,76,43,30.26,29.95,16,2,16,0.01
2013-3-31,62,51,43,50,46,40,96,84,60,29.96,29.84,15,2,17,0.09
2013-4-1,53,43,34,40,31,23,97,66,37,30.18,29.86,17,3,18,0.01
2013-4-2,52,36,23,31,23,19,92,62,30,30.33,30.17,12,1,13,0.00
2013-4-3,52,39,23,28,23,19,92,55,33,30.42,30.30,17,3,19,0.00
2013-4-4,57,45,34,33,26,20,80,47,34,30.31,30.02,14,2,15,0.00
2013-4-5,66,47,26,40,32,24,93,61,30,30.14,30.02,18,2,18,0.00
2013-4-6,73,55,36,46,38,31,85,56,34,30.16,29.91,24,4,24,0.04
2013-4-7,74,65,58,57,49,42,72,55,44,29.97,29.90,21,6,23,0.00
2013-4-8,74,63,52,59,53,47,84,70,58,29.97,29.88,26,4,26,0.00
2013-4-9,82,69,55,64,59,51,92,72,50,30.05,29.92,24,5,26,0.00
2013-4-10,70,69,65,62,61,59,82,76,74,29.95,29.90,10,2,11,0.00
2013-4-11,60,57,52,59,56,50,96,95,94,29.62,29.52,17,2,17,1.02
2013-4-12,53,45,38,50,38,33,95,76,59,29.99,29.59,23,4,27,0.07
2013-4-13,63,48,31,42,36,29,93,67,42,30.09,29.99,21,3,22,0.00
2013-4-14,76,57,36,51,43,34,95,65,35,30.04,29.83,22,4,22,0.00
2013-4-15,74,64,57,60,54,49,80,70,56,29.99,29.89,15,4,16,0.00
2013-4-16,82,70,62,70,62,54,93,78,64,30.11,29.92,22,5,25,0.06
2013-4-17,79,66,60,71,63,58,96,91,74,30.13,29.90,19,3,23,1.04
2013-4-18,83,73,63,67,62,58,92,70,49,29.90,29.58,32,7,32,0.00
2013-4-19,74,45,39,62,38,31,94,78,61,30.07,29.50,24,6,24,1.17
2013-4-20,57,45,32,37,32,28,94,64,34,30.39,30.07,15,2,19,0.00
2013-4-21,62,48,35,40,33,28,83,60,38,30.50,30.33,18,3,18,0.00
2013-4-22,73,54,34,50,42,32,94,67,38,30.35,30.10,12,1,13,0.00
2013-4-23,72,58,43,57,49,40,94,75,57,30.13,29.86,20,4,21,0.00
2013-4-24,66,50,35,57,44,33,94,82,66,30.28,29.81,22,3,24,0.65
2013-4-25,62,46,30,44,36,29,100,73,44,30.40,30.28,19,3,19,0.00
2013-4-26,39,36,34,36,33,32,93,91,85,30.44,30.39,2,0,2,0.00
2013-5-5,55,53,51,52,50,49,94,91,88,29.90,29.87,17,6,20,0.53
2013-5-6,53,53,53,52,52,52,96,96,96,29.84,29.84,6,2,11,0.01
2013-5-7,75,65,55,62,58,53,97,77,55,29.98,29.92,11,1,11,0.05
2013-5-8,81,66,51,64,58,50,97,77,45,30.02,29.93,9,1,10,0.02
2013-5-9,80,64,53,67,59,52,97,85,49,30.04,29.92,27,1,27,0.08
2013-5-10,66,63,60,61,60,58,93,88,82,29.95,29.87,11,1,12,0.00
2013-5-12,60,53,39,40,37,33,94,55,38,30.18,30.12,18,3,20,0.00
2013-5-13,41,37,34,38,35,32,94,91,86,30.18,30.16,0,0,2,0.00
2013-5-26,76,68,56,60,55,52,90,65,51,30.29,30.14,13,2,14,0.01
2013-5-27,85,72,57,67,60,53,89,66,46,30.14,29.94,22,4,23,0.00
2013-5-28,86,77,68,69,64,61,80,65,51,30.02,29.91,22,5,23,0.00
2013-5-29,89,76,62,70,64,59,92,70,48,30.08,29.97,18,3,21,0.00
2013-5-30,88,77,68,74,68,62,89,74,59,30.10,29.96,22,3,23,0.06
2013-5-31,80,73,70,73,69,65,95,86,74,30.02,29.90,24,4,24,0.30
2013-6-1,75,69,64,70,66,61,96,90,74,29.97,29.77,21,3,21,0.46
2013-6-2,77,70,63,66,63,59,95,81,61,29.94,29.86,12,2,14,0.00
2013-6-3,75,64,54,61,57,52,95,79,54,30.06,29.94,12,1,12,0.00
2013-6-4,79,65,49,63,56,47,96,77,52,30.12,30.00,16,2,16,0.00
2013-6-5,86,71,56,69,62,54,95,75,50,30.04,29.82,13,1,14,0.00
2013-6-6,81,71,64,71,67,62,96,87,63,29.84,29.74,7,0,9,0.06
2013-6-7,80,69,60,70,63,59,97,84,58,29.81,29.77,11,0,11,0.00
2013-6-16,80,68,66,72,67,64,96,95,77,30.06,29.95,15,1,18,1.19
2013-6-17,91,73,64,77,68,63,98,86,55,30.00,29.85,15,1,15,1.69
2013-6-18,88,72,63,73,65,61,97,81,53,29.96,29.83,19,1,19,0.01
2013-6-19,83,72,60,70,64,58,97,79,53,30.08,29.95,12,1,12,0.00
2013-6-20,90,74,60,70,65,58,97,75,42,30.17,30.08,10,1,11,0.00
2013-6-21,91,76,62,74,68,61,96,79,55,30.18,30.07,10,1,12,0.00
2013-6-22,90,78,67,76,70,66,96,78,54,30.16,30.04,12,2,13,0.00
2013-6-23,88,76,65,75,70,64,97,81,57,30.12,30.03,15,1,15,0.00
2013-6-24,77,72,68,72,69,66,96,90,78,30.14,30.04,11,1,11,0.12
2013-6-25,92,79,66,78,72,65,97,82,59,30.06,29.89,17,2,17,0.00
2013-6-26,86,75,66,77,71,65,97,88,72,29.97,29.72,24,3,24,1.24
2013-6-29,76,73,70,68,67,66,88,82,76,29.61,29.59,2,2,4,0.64
2013-7-3,83,75,61,71,68,60,97,79,61,30.09,30.03,12,2,12,0.00
2013-7-4,71,69,66,70,68,65,97,96,92,30.12,30.04,11,1,11,0.27
2013-7-5,81,72,65,74,69,64,97,90,75,30.12,30.05,13,1,13,0.03
2013-7-6,75,68,65,69,66,64,97,93,79,30.11,30.05,7,1,10,0.47
2013-7-7,87,74,65,75,68,64,97,82,56,30.11,30.03,10,1,13,0.01
2013-7-8,90,75,64,77,70,63,97,84,56,30.14,30.03,13,1,13,0.00
2013-7-9,91,81,72,80,74,71,96,82,61,30.09,29.97,14,2,15,0.00
2013-7-10,79,76,70,76,73,69,96,92,89,29.99,29.90,2,0,2,0.56
2013-7-11,83,74,64,71,67,61,98,81,54,29.99,29.91,13,1,14,0.00
2013-7-12,84,69,57,68,61,55,96,77,50,30.08,29.99,14,1,16,0.00
2013-7-13,82,71,59,71,64,58,96,80,62,30.08,30.02,21,2,33,0.00
2013-7-14,92,78,65,76,70,63,97,80,56,30.17,30.07,14,1,14,0.00
2013-7-15,92,80,70,76,72,69,97,80,56,30.27,30.17,14,1,14,0.00
2013-7-16,93,81,69,80,74,68,97,81,58,30.31,30.23,7,0,9,0.00
2013-7-17,95,82,71,81,76,70,97,84,56,30.30,30.16,7,0,11,0.00
2013-7-18,94,82,74,82,77,73,98,86,59,30.19,30.02,10,0,10,0.06
2013-7-19,91,81,71,79,74,69,97,80,60,30.04,29.90,14,2,15,0.00
2013-7-20,90,78,70,79,73,69,97,83,61,29.93,29.84,15,2,15,0.00
2013-7-21,92,78,70,78,72,69,95,83,54,29.95,29.84,21,0,21,0.18
2013-7-22,83,74,70,76,71,69,97,92,76,29.91,29.77,13,1,15,0.56
2013-7-23,91,77,68,79,72,67,98,87,66,29.85,29.73,12,1,15,0.00
2013-7-24,80,70,63,69,63,58,91,77,60,29.96,29.80,15,1,15,0.00
2013-7-25,81,68,56,66,61,55,96,79,52,30.07,29.96,9,0,10,0.00
2013-7-26,84,70,56,69,62,55,97,79,54,30.08,29.97,10,1,10,0.00
2013-7-27,79,69,62,69,64,56,96,85,57,29.98,29.86,17,2,17,0.13
2013-7-28,78,64,50,61,54,48,96,73,48,30.07,29.94,12,1,12,0.00
2013-7-29,83,67,52,66,59,51,96,79,50,30.18,30.07,11,1,13,0.00
2013-7-30,79,68,59,70,64,58,96,88,63,30.19,30.09,11,1,12,0.13
2013-7-31,77,70,65,72,67,63,96,91,81,30.11,29.95,9,1,11,0.00
2013-8-1,86,73,64,71,66,62,98,81,49,30.01,29.93,14,1,14,0.00
2013-8-2,85,72,58,69,64,57,97,78,54,30.03,29.96,13,1,14,0.00
2013-8-3,87,75,66,76,70,64,96,84,64,30.03,29.94,12,1,13,0.00
2013-8-4,81,70,58,68,61,57,96,76,50,30.13,30.03,12,1,12,0.00
2013-8-5,61,57,54,59,55,53,96,95,93,30.11,30.08,0,0,0,0.00
2013-8-15,78,67,48,63,57,47,97,73,52,30.15,30.05,12,1,14,0.00
2013-8-16,81,67,52,66,59,51,97,77,52,30.12,30.07,14,1,14,0.00
2013-8-17,84,70,62,71,64,59,93,79,57,30.16,30.06,13,0,13,0.00
2013-8-18,85,71,58,69,64,57,97,79,49,30.16,30.06,11,0,11,0.00
2013-8-19,88,74,61,72,66,60,97,80,54,30.12,30.03,8,0,9,0.00
2013-8-20,89,74,62,76,68,60,97,84,58,30.13,30.04,12,1,15,0.00
2013-8-21,93,77,64,76,70,64,97,81,52,30.15,30.03,13,1,13,0.00
2013-8-22,92,78,66,75,70,65,98,80,51,30.11,30.00,14,1,14,0.00
2013-8-23,92,77,67,75,69,65,97,80,51,30.10,30.01,10,1,12,0.00
2013-8-24,90,74,61,71,64,59,97,74,38,30.22,30.10,12,1,14,0.00
2013-8-25,92,74,57,73,66,56,97,79,46,30.31,30.19,8,1,9,0.00
2013-8-26,91,76,64,75,70,63,97,82,55,30.24,30.08,10,1,11,0.00
2013-8-27,93,79,68,79,73,67,98,84,60,30.10,29.97,10,1,11,0.00
2013-8-28,97,83,70,74,72,68,97,72,44,30.00,29.91,15,2,22,0.00
2013-8-29,97,81,69,79,72,68,95,76,47,29.99,29.92,9,0,11,0.00
2013-8-30,98,81,67,78,72,66,97,78,45,29.96,29.83,12,1,14,0.00
2013-8-31,94,78,72,79,74,71,97,86,59,29.86,29.76,14,1,20,0.12
2013-9-1,91,80,68,78,73,67,97,80,63,29.82,29.74,14,2,15,0.66
2013-9-2,89,75,66,77,70,65,97,87,65,29.87,29.79,17,1,22,0.29
2013-9-3,84,70,60,68,63,58,97,79,49,30.05,29.87,14,1,15,0.00
2013-9-4,87,68,53,68,60,52,97,79,46,30.15,30.05,13,0,14,0.00
2013-9-5,90,72,57,71,64,56,97,79,47,30.19,30.11,9,0,9,0.00
2013-9-6,90,73,60,73,65,59,97,80,51,30.19,30.06,8,0,10,0.00
2013-9-7,90,74,60,72,66,58,97,79,50,30.08,29.95,10,1,13,0.00
2013-9-8,92,76,68,75,69,66,97,82,52,29.98,29.92,13,0,13,0.01
2013-9-9,93,74,64,76,69,64,97,86,54,30.01,29.96,12,1,12,0.00
2013-9-29,61,61,61,60,60,60,96,96,95,30.02,30.01,0,0,3,0.09
2013-9-30,80,67,61,67,63,60,97,87,63,30.02,29.94,5,1,8,0.01
2013-10-1,85,67,57,69,62,56,97,87,57,30.09,30.00,5,1,10,0.00
2013-10-5,71,70,70,70,70,69,97,97,97,29.97,29.92,16,2,16,1.82
2013-10-6,68,58,50,67,57,47,98,97,91,29.91,29.78,14,2,14,2.70
2013-10-7,68,53,45,53,47,44,97,82,53,30.18,29.90,13,1,13,0.00
2013-10-8,69,53,40,54,46,39,100,81,51,30.26,30.16,19,2,19,0.00
2013-10-9,83,58,42,65,52,41,100,82,48,30.22,30.13,7,0,7,0.00
2013-10-10,53,51,49,52,50,48,96,95,95,30.15,30.14,0,0,0,0.00
2013-10-15,65,64,63,63,62,62,95,94,93,29.98,29.95,10,0,10,0.04
2013-10-16,64,60,47,63,56,46,95,86,69,29.99,29.90,12,1,12,0.00
2013-10-17,62,50,43,52,46,41,96,88,63,30.02,29.93,18,1,18,0.20
2013-10-18,70,51,39,53,45,37,97,82,50,30.08,29.96,16,1,16,0.00
2013-10-19,58,48,37,48,44,35,96,89,56,30.05,29.86,18,1,18,0.21
2013-10-20,66,48,35,48,41,34,96,79,48,30.10,30.01,17,2,17,0.00
2013-10-21,68,52,37,50,44,36,95,77,51,30.05,29.94,20,3,20,0.00
2013-10-22,62,48,32,46,38,30,95,72,42,30.08,29.83,10,1,10,0.01
2013-10-23,49,44,37,44,37,32,92,77,57,30.11,29.80,21,3,21,0.00
2013-10-24,44,39,30,37,33,27,90,78,59,30.36,30.10,18,1,18,0.01
2013-10-25,54,36,24,33,28,22,95,76,41,30.52,30.35,11,0,11,0.01
2013-10-26,59,40,26,42,33,24,93,77,51,30.35,30.00,25,3,25,0.00
2013-10-27,66,44,29,42,35,28,95,75,36,30.15,30.06,11,1,11,0.00
2013-10-28,72,48,34,46,38,32,95,74,34,30.30,30.11,7,0,7,0.00
2013-10-29,58,47,34,54,44,33,100,92,83,30.35,30.17,11,0,11,0.08
2013-10-30,71,62,55,67,61,54,100,94,84,30.18,30.01,12,1,12,1.57
2013-10-31,66,64,60,65,60,57,97,89,77,30.02,29.42,33,7,33,0.90
2013-11-2,59,50,36,47,42,35,100,76,58,30.15,29.87,18,2,18,0.00
2013-11-3,60,43,31,43,36,29,100,79,47,30.35,30.15,10,1,10,0.00
2013-11-4,62,50,36,46,41,34,93,74,54,30.39,30.29,22,2,22,0.00
2013-11-5,64,54,47,47,44,42,86,71,54,30.41,30.21,11,1,11,0.00
2013-11-6,64,55,43,59,51,42,96,87,73,30.20,30.01,22,3,24,0.35
2013-11-7,55,42,34,42,34,28,95,76,40,30.34,30.13,16,2,16,0.04
2013-11-8,58,40,27,37,31,25,95,71,38,30.43,30.26,9,1,9,0.00
2013-11-9,64,48,30,42,35,27,89,64,41,30.27,30.11,29,5,29,0.00
2013-11-10,61,46,30,42,35,27,93,69,34,30.37,30.19,15,1,15,0.00
2013-11-11,66,45,28,45,34,26,94,69,27,30.33,30.13,19,2,19,0.02
2013-11-12,44,33,24,42,25,20,92,72,47,30.69,30.26,21,4,21,0.03
2013-11-13,46,30,18,27,22,16,94,75,42,30.73,30.46,13,1,13,0.00
2013-11-14,28,26,24,22,21,20,86,81,76,30.46,30.42,3,0,3,0.00
2013-11-21,55,52,51,52,51,50,96,95,90,30.23,30.20,5,0,5,0.15
2013-11-22,56,50,40,55,48,35,97,93,82,30.41,30.18,18,3,18,0.08
2013-11-23,43,34,22,36,24,12,85,68,41,30.64,30.39,20,4,20,0.00
2013-11-24,32,23,16,17,14,10,85,68,49,30.76,30.58,13,2,13,0.00
2013-11-25,39,31,21,30,21,16,92,68,48,30.58,30.23,14,2,18,0.00
2013-11-26,36,34,33,33,31,27,94,88,75,30.26,29.97,14,1,14,0.03
2013-11-27,34,27,16,28,18,11,92,71,58,30.39,30.01,19,4,19,0.00
2013-11-28,41,25,14,21,16,11,90,72,43,30.51,30.35,19,2,19,0.00
2013-11-29,48,29,16,30,22,14,93,77,49,30.66,30.51,9,1,9,0.00
2013-11-30,58,37,22,35,27,20,94,70,39,30.52,30.23,19,2,19,0.00
2013-12-1,59,46,36,41,35,29,89,65,52,30.23,29.98,14,2,14,0.00
2013-12-2,57,44,33,44,38,31,94,82,62,29.98,29.77,7,0,7,0.00
2013-12-3,58,47,33,52,45,31,97,91,79,29.86,29.77,12,2,12,0.00
2013-12-4,68,59,46,62,55,44,97,87,73,29.83,29.68,18,4,18,0.00
2013-12-5,68,48,32,63,45,30,96,90,78,30.19,29.77,19,4,19,0.56
2013-12-6,32,28,25,30,26,24,94,93,91,30.45,30.14,10,0,10,0.24
2013-12-7,28,21,12,26,19,10,93,90,86,30.65,30.44,0,0,0,0.15
2013-12-8,32,27,22,31,24,18,95,91,87,30.53,30.08,0,0,0,0.00
2013-12-9,32,28,24,31,26,20,96,89,83,30.30,30.08,15,2,15,0.00
2013-12-10,33,24,14,24,19,11,91,83,62,30.43,30.22,18,3,18,0.07
2013-12-11,14,13,12,11,10,9,90,90,89,30.44,30.42,4,0,4,0.00
2013-12-12,24,22,21,14,12,11,67,65,62,30.44,30.42,9,2,9,0.00
2013-12-13,43,29,15,32,21,12,94,75,50,30.42,30.15,17,2,17,0.10
2013-12-14,39,36,32,38,34,30,100,95,93,30.16,29.76,17,3,17,0.88
2013-12-15,32,29,27,30,26,22,93,87,82,30.19,30.00,19,4,19,0.00
2013-12-16,47,35,29,37,31,27,94,84,65,30.18,30.04,14,3,14,0.02
2013-12-17,37,32,26,35,29,24,95,87,70,30.26,30.03,14,2,14,0.01
2013-12-18,48,33,21,26,22,18,92,67,39,30.36,30.12,17,2,17,0.00
2013-12-19,63,49,36,46,36,24,74,61,49,30.15,29.98,21,6,25,0.00
2013-12-20,62,56,49,59,51,41,94,83,60,29.98,29.84,21,7,21,0.11
2013-12-21,68,62,59,65,61,58,100,94,87,29.85,29.44,39,7,39,3.67
2013-12-22,60,48,36,60,46,34,97,92,86,30.12,29.52,28,6,28,0.20
2013-12-23,36,30,26,34,25,20,91,81,74,30.48,30.12,19,4,19,0.00
2013-12-24,26,20,13,22,13,6,84,75,63,30.65,30.46,17,4,17,0.00
2013-12-25,37,36,35,27,25,23,70,64,59,30.30,30.28,12,1,12,0.00
2013-12-26,46,34,26,30,27,23,89,75,51,30.44,30.28,17,2,17,0.00
2013-12-27,53,34,21,35,26,19,95,77,47,30.47,30.36,15,1,15,0.00
2013-12-28,49,37,24,36,29,22,93,76,54,30.37,30.03,12,1,12,0.04
2013-12-29,47,38,30,42,35,27,96,90,78,30.14,29.88,20,3,20,0.53
2013-12-30,33,26,21,27,20,14,90,76,55,30.32,30.14,12,2,12,0.00
2013-12-31,44,29,21,25,20,15,81,69,46,30.47,30.26,15,3,15,0.00
2014-1-1,51,36,25,33,27,22,92,73,47,30.34,30.02,17,2,17,0.00
2014-1-2,36,26,13,34,23,8,95,88,79,30.40,29.85,23,4,23,0.18